createdAt,value
2022-11-04T00:00:16.276Z,99690.53
2022-11-04T00:02:42.900Z,99689.13
2022-11-04T00:05:09.627Z,99697.13
2022-11-04T00:07:54.558Z,99696.94
2022-11-04T00:10:41.166Z,99691.31
2022-11-04T00:13:08.004Z,99692.34
2022-11-04T00:15:56.268Z,99692.72
2022-11-04T00:18:22.781Z,99686.34
2022-11-04T00:21:08.365Z,99690.34
2022-11-04T00:23:53.490Z,99693.34
2022-11-04T00:26:38.440Z,99689.94
2022-11-04T00:29:05.047Z,99702.34
2022-11-04T00:31:50.469Z,99703.53
2022-11-04T00:34:17.057Z,99722.72
2022-11-04T00:36:43.675Z,99725.13
2022-11-04T00:39:10.245Z,99735.91
2022-11-04T00:41:36.910Z,99747.50
2022-11-04T00:44:05.041Z,99749.28
2022-11-04T00:46:34.170Z,99747.66
2022-11-04T00:49:01.200Z,99749.47
2022-11-04T00:51:27.958Z,99756.44
2022-11-04T00:53:54.944Z,99754.88
2022-11-04T00:56:22.593Z,99764.44
2022-11-04T00:58:50.275Z,99756.44
2022-11-04T01:01:18.597Z,99758.66
2022-11-04T01:03:47.081Z,99764.06
2022-11-04T01:06:13.763Z,99764.44
2022-11-04T01:08:40.751Z,99769.66
2022-11-04T01:11:09.130Z,99769.44
2022-11-04T01:13:37.012Z,99773.03
2022-11-04T01:16:07.319Z,99776.63
2022-11-04T01:18:34.493Z,99780.63
2022-11-04T01:21:06.048Z,99777.44
2022-11-04T01:23:34.836Z,99775.66
2022-11-04T01:26:01.483Z,99781.22
2022-11-04T01:28:27.974Z,99779.81
2022-11-04T01:30:54.563Z,99775.44
2022-11-04T01:33:21.045Z,99782.81
2022-11-04T01:35:47.661Z,99789.41
2022-11-04T01:38:15.369Z,99792.59
2022-11-04T01:40:41.903Z,99788.41
2022-11-04T01:43:17.550Z,99793.78
2022-11-04T01:45:52.171Z,99792.19
2022-11-04T01:48:28.650Z,99786.81
2022-11-04T01:50:55.948Z,99798.97
2022-11-04T01:53:43.717Z,99804.81
2022-11-04T01:56:14.426Z,99811.56
2022-11-04T01:58:54.014Z,99811.94
2022-11-04T02:01:20.874Z,99818.34
2022-11-04T02:03:53.131Z,99825.53
2022-11-04T02:06:22.121Z,99830.72
2022-11-04T02:08:49.557Z,99831.72
2022-11-04T02:11:36.609Z,99831.13
2022-11-04T02:14:03.232Z,99827.28
2022-11-04T02:16:42.892Z,99830.69
2022-11-04T02:19:26.071Z,99838.28
2022-11-04T02:22:10.772Z,99848.88
2022-11-04T02:24:42.929Z,99844.69
2022-11-04T02:27:43.668Z,99861.25
2022-11-04T02:30:14.339Z,99856.44
2022-11-04T02:32:52.863Z,99857.81
2022-11-04T02:35:44.088Z,99862.41
2022-11-04T02:38:28.705Z,99869.41
2022-11-04T02:41:13.765Z,99875.78
2022-11-04T02:43:58.656Z,99878.13
2022-11-04T02:46:39.138Z,99886.50
2022-11-04T02:49:15.855Z,99885.84
2022-11-04T02:52:04.440Z,99889.03
2022-11-04T02:54:41.242Z,99891.22
2022-11-04T02:57:09.981Z,99902.94
2022-11-04T02:59:48.601Z,99901.16
2022-11-04T03:02:26.571Z,99906.16
2022-11-04T03:04:56.620Z,99902.34
2022-11-04T03:07:28.951Z,99898.75
2022-11-04T03:10:01.734Z,99910.94
2022-11-04T03:12:36.299Z,99916.72
2022-11-04T03:15:09.169Z,99909.31
2022-11-04T03:17:50.995Z,99915.13
2022-11-04T03:20:25.574Z,99913.72
2022-11-04T03:22:55.752Z,99919.69
2022-11-04T03:25:33.230Z,99921.69
2022-11-04T03:28:14.840Z,99922.69
2022-11-04T03:30:47.225Z,99920.91
2022-11-04T03:33:32.252Z,99945.03
2022-11-04T03:35:58.946Z,99934.03
2022-11-04T03:38:25.932Z,99941.41
2022-11-04T03:40:52.623Z,99938.00
2022-11-04T03:43:27.299Z,99940.16
2022-11-04T03:45:54.737Z,99948.50
2022-11-04T03:48:23.039Z,99954.50
2022-11-04T03:50:51.112Z,99950.94
2022-11-04T03:53:27.589Z,99950.94
2022-11-04T03:55:57.023Z,99952.72
2022-11-04T03:58:49.437Z,99955.31
2022-11-04T04:01:16.140Z,99959.69
2022-11-04T04:03:51.644Z,99962.69
2022-11-04T04:06:27.393Z,99968.03
2022-11-04T04:09:00.976Z,99965.84
2022-11-04T04:11:50.937Z,99979.31
2022-11-04T04:14:39.146Z,99978.09
2022-11-04T04:17:20.262Z,99980.28
2022-11-04T04:20:09.632Z,99978.41
2022-11-04T04:22:42.415Z,99985.56
2022-11-04T04:25:31.105Z,99998.13
2022-11-04T04:27:58.733Z,99995.69
2022-11-04T04:30:25.617Z,99999.28
2022-11-04T04:33:01.652Z,100002.22
2022-11-04T04:35:41.941Z,100007.88
2022-11-04T04:38:31.855Z,100007.69
2022-11-04T04:41:25.200Z,100015.09
2022-11-04T04:44:10.506Z,100012.31
2022-11-04T04:46:38.795Z,100023.28
2022-11-04T04:49:06.812Z,100016.31
2022-11-04T04:51:36.211Z,100027.50
2022-11-04T04:54:02.936Z,100032.69
2022-11-04T04:56:29.433Z,100028.47
2022-11-04T04:58:56.289Z,100027.88
2022-11-04T05:01:23.659Z,100027.59
2022-11-04T05:03:50.397Z,100028.78
2022-11-04T05:06:17.033Z,100035.78
2022-11-04T05:08:43.520Z,100035.50
2022-11-04T05:11:10.576Z,100042.22
2022-11-04T05:13:37.465Z,100040.97
2022-11-04T05:16:10.232Z,100039.13
2022-11-04T05:18:37.511Z,100039.59
2022-11-04T05:21:08.346Z,100041.59
2022-11-04T05:23:35.260Z,100041.44
2022-11-04T05:26:01.962Z,100038.03
2022-11-04T05:28:28.493Z,100030.59
2022-11-04T05:30:55.169Z,100035.16
2022-11-04T05:33:21.968Z,100028.75
2022-11-04T05:35:48.637Z,100031.25
2022-11-04T05:38:15.150Z,100044.56
2022-11-04T05:40:41.711Z,100043.13
2022-11-04T05:43:08.457Z,100048.03
2022-11-04T05:45:35.262Z,100054.22
2022-11-04T05:48:04.246Z,100060.56
2022-11-04T05:50:32.602Z,100064.94
2022-11-04T05:53:00.228Z,100071.47
2022-11-04T05:55:27.384Z,100077.00
2022-11-04T05:57:54.216Z,100077.34
2022-11-04T06:00:20.963Z,100087.06
2022-11-04T06:02:47.775Z,100091.81
2022-11-04T06:05:14.421Z,100099.13
2022-11-04T06:07:41.000Z,100110.63
2022-11-04T06:10:07.752Z,100107.59
2022-11-04T06:12:34.289Z,100113.94
2022-11-04T06:15:00.785Z,100116.72
2022-11-04T06:17:27.376Z,100123.03
2022-11-04T06:19:53.883Z,100136.13
2022-11-04T06:22:20.534Z,100136.31
2022-11-04T06:24:47.056Z,100139.09
2022-11-04T06:27:14.141Z,100157.03
2022-11-04T06:29:42.050Z,100151.03
2022-11-04T06:32:17.261Z,100155.59
2022-11-04T06:34:44.165Z,100152.56
2022-11-04T06:37:11.182Z,100159.69
2022-11-04T06:39:37.727Z,100161.66
2022-11-04T06:42:05.330Z,100161.66
2022-11-04T06:44:33.801Z,100174.59
2022-11-04T06:47:00.414Z,100177.81
2022-11-04T06:49:26.979Z,100175.69
2022-11-04T06:51:53.750Z,100184.69
2022-11-04T06:54:20.580Z,100192.75
2022-11-04T06:56:47.492Z,100195.63
2022-11-04T06:59:20.224Z,100200.28
2022-11-04T07:01:47.746Z,100198.78
2022-11-04T07:04:14.696Z,100199.88
2022-11-04T07:06:44.946Z,100200.97
2022-11-04T07:09:15.867Z,100202.22
2022-11-04T07:11:43.880Z,100199.72
2022-11-04T07:14:11.188Z,100212.16
2022-11-04T07:16:38.066Z,100204.03
2022-11-04T07:19:05.133Z,100207.88
2022-11-04T07:21:32.470Z,100200.38
2022-11-04T07:23:59.101Z,100197.06
2022-11-04T07:26:25.723Z,100204.53
2022-11-04T07:28:52.536Z,100201.22
2022-11-04T07:31:20.238Z,100201.69
2022-11-04T07:33:50.173Z,100197.94
2022-11-04T07:36:17.759Z,100197.75
2022-11-04T07:38:45.306Z,100197.41
2022-11-04T07:41:13.020Z,100199.00
2022-11-04T07:43:39.687Z,100204.63
2022-11-04T07:46:08.951Z,100201.84
2022-11-04T07:48:36.777Z,100210.09
2022-11-04T07:51:05.224Z,100225.28
2022-11-04T07:53:32.301Z,100224.94
2022-11-04T07:55:59.082Z,100228.59
2022-11-04T07:58:26.538Z,100233.41
2022-11-04T08:01:04.805Z,100235.22
2022-11-04T08:03:31.477Z,100231.44
2022-11-04T08:06:00.099Z,100244.41
2022-11-04T08:08:27.763Z,100246.03
2022-11-04T08:11:00.556Z,100247.00
2022-11-04T08:13:29.168Z,100258.03
2022-11-04T08:15:56.878Z,100250.06
2022-11-04T08:18:23.654Z,100259.09
2022-11-04T08:20:51.566Z,100254.50
2022-11-04T08:23:18.780Z,100259.00
2022-11-04T08:25:45.841Z,100267.41
2022-11-04T08:28:17.442Z,100267.03
2022-11-04T08:31:02.859Z,100274.31
2022-11-04T08:33:31.243Z,100285.72
2022-11-04T08:36:09.369Z,100281.44
2022-11-04T08:38:36.864Z,100289.75
2022-11-04T08:41:05.491Z,100297.63
2022-11-04T08:43:34.098Z,100295.09
2022-11-04T08:46:01.639Z,100301.72
2022-11-04T08:48:28.677Z,100307.72
2022-11-04T08:50:58.931Z,100307.25
2022-11-04T08:53:26.268Z,100315.88
2022-11-04T08:55:53.960Z,100319.44
2022-11-04T08:58:21.594Z,100321.06
2022-11-04T09:00:48.359Z,100325.28
2022-11-04T09:03:15.415Z,100326.25
2022-11-04T09:05:49.143Z,100332.06
2022-11-04T09:08:17.629Z,100336.28
2022-11-04T09:10:46.905Z,100343.88
2022-11-04T09:13:15.933Z,100335.91
2022-11-04T09:15:43.174Z,100336.34
2022-11-04T09:18:09.863Z,100340.00
2022-11-04T09:20:39.920Z,100346.69
2022-11-04T09:23:06.963Z,100340.59
2022-11-04T09:25:34.867Z,100339.88
2022-11-04T09:28:01.678Z,100343.16
2022-11-04T09:30:28.235Z,100335.91
2022-11-04T09:32:54.850Z,100341.72
2022-11-04T09:35:21.501Z,100342.72
2022-11-04T09:37:48.079Z,100347.09
2022-11-04T09:40:17.850Z,100346.47
2022-11-04T09:42:51.961Z,100341.47
2022-11-04T09:45:23.330Z,100345.88
2022-11-04T09:47:52.328Z,100349.59
2022-11-04T09:50:35.634Z,100353.19
2022-11-04T09:53:09.216Z,100351.31
2022-11-04T09:55:47.134Z,100353.22
2022-11-04T09:58:16.784Z,100353.38
2022-11-04T10:00:51.756Z,100362.47
2022-11-04T10:03:36.344Z,100371.53
2022-11-04T10:06:27.581Z,100382.09
2022-11-04T10:09:30.064Z,100383.38
2022-11-04T10:12:22.980Z,100379.63
2022-11-04T10:15:13.581Z,100384.31
2022-11-04T10:17:58.383Z,100384.13
2022-11-04T10:20:43.571Z,100388.94
2022-11-04T10:23:16.302Z,100384.31
2022-11-04T10:25:48.978Z,100385.72
2022-11-04T10:28:18.975Z,100386.78
2022-11-04T10:30:49.093Z,100381.13
2022-11-04T10:34:04.855Z,100375.94
2022-11-04T10:36:31.950Z,100381.28
2022-11-04T10:38:58.972Z,100373.72
2022-11-04T10:41:34.661Z,100381.38
2022-11-04T10:44:06.630Z,100376.63
2022-11-04T10:46:48.039Z,100380.22
2022-11-04T10:53:10.591Z,100370.31
2022-11-04T10:55:56.166Z,100375.28
2022-11-04T10:58:30.487Z,100377.06
2022-11-04T11:00:58.594Z,100388.72
2022-11-04T11:03:30.008Z,100392.75
2022-11-04T11:06:25.729Z,100403.16
2022-11-04T11:08:55.609Z,100398.38
2022-11-04T11:11:45.552Z,100400.22
2022-11-04T11:14:28.712Z,100400.78
2022-11-04T11:17:19.551Z,100408.19
2022-11-04T11:19:53.443Z,100407.31
2022-11-04T11:22:39.590Z,100411.06
2022-11-04T11:25:30.502Z,100423.81
2022-11-04T11:28:00.144Z,100432.84
2022-11-04T11:30:32.868Z,100434.72
2022-11-04T11:33:09.175Z,100431.09
2022-11-04T11:35:44.968Z,100424.88
2022-11-04T11:38:20.039Z,100424.44
2022-11-04T11:41:10.486Z,100419.78
2022-11-04T11:43:36.569Z,100424.38
2022-11-04T11:46:03.665Z,100433.00
2022-11-04T11:48:42.941Z,100443.41
2022-11-04T11:51:14.254Z,100446.41
2022-11-04T11:53:57.623Z,100441.47
2022-11-04T11:56:52.084Z,100448.09
2022-11-04T12:03:13.283Z,100439.78
2022-11-04T12:06:22.571Z,100447.41
2022-11-04T12:09:22.641Z,100448.72
2022-11-04T12:12:10.621Z,100454.09
2022-11-04T12:14:51.916Z,100452.31
2022-11-04T12:17:30.827Z,100451.31
2022-11-04T12:20:15.300Z,100452.88
2022-11-04T12:23:04.381Z,100442.38
2022-11-04T12:25:54.543Z,100447.16
2022-11-04T12:28:42.372Z,100445.94
2022-11-04T12:31:36.703Z,100455.09
2022-11-04T12:34:16.199Z,100454.47
2022-11-04T12:37:10.801Z,100466.28
2022-11-04T12:39:37.259Z,100465.31
2022-11-04T12:42:36.994Z,100458.94
2022-11-04T12:45:25.022Z,100451.16
2022-11-04T12:47:59.711Z,100462.97
2022-11-04T12:50:35.357Z,100467.16
2022-11-04T12:53:21.534Z,100476.75
2022-11-04T12:56:01.695Z,100475.72
2022-11-04T12:58:50.736Z,100481.28
2022-11-04T13:01:28.648Z,100485.69
2022-11-04T13:04:09.531Z,100487.09
2022-11-04T13:06:51.683Z,100480.94
2022-11-04T13:09:34.417Z,100491.41
2022-11-04T13:12:26.402Z,100493.44
2022-11-04T13:15:00.832Z,100489.66
2022-11-04T13:17:32.690Z,100482.69
2022-11-04T13:20:05.588Z,100477.69
2022-11-04T13:22:36.153Z,100485.13
2022-11-04T13:25:15.080Z,100490.53
2022-11-04T13:27:45.659Z,100498.34
2022-11-04T13:30:34.442Z,100506.75
2022-11-04T13:33:34.558Z,100504.16
2022-11-04T13:36:18.623Z,100504.16
2022-11-04T13:38:51.352Z,100513.59
2022-11-04T13:41:54.475Z,100510.59
2022-11-04T13:44:27.093Z,100520.38
2022-11-04T13:47:04.186Z,100514.56
2022-11-04T13:49:33.932Z,100519.16
2022-11-04T13:52:09.886Z,100518.53
2022-11-04T13:54:43.392Z,100518.09
2022-11-04T13:57:19.548Z,100523.28
2022-11-04T14:00:08.031Z,100522.69
2022-11-04T14:02:48.185Z,100522.06
2022-11-04T14:05:28.241Z,100527.06
2022-11-04T14:08:01.046Z,100537.31
2022-11-04T14:10:42.786Z,100531.91
2022-11-04T14:13:27.411Z,100530.75
2022-11-04T14:16:05.173Z,100542.38
2022-11-04T14:18:38.047Z,100548.22
2022-11-04T14:21:08.973Z,100542.22
2022-11-04T14:23:38.107Z,100554.84
2022-11-04T14:26:08.025Z,100557.44
2022-11-04T14:28:35.650Z,100564.28
2022-11-04T14:31:15.888Z,100562.03
2022-11-04T14:33:57.045Z,100564.63
2022-11-04T14:36:26.480Z,100569.03
2022-11-04T14:39:38.061Z,100565.44
2022-11-04T14:42:06.796Z,100583.91
2022-11-04T14:44:33.402Z,100590.16
2022-11-04T14:47:16.984Z,100603.25
2022-11-04T14:49:49.947Z,100600.28
2022-11-04T14:52:27.838Z,100602.88
2022-11-04T14:55:12.548Z,100603.25
2022-11-04T14:57:42.138Z,100606.84
2022-11-04T15:00:30.752Z,100610.63
2022-11-04T15:06:11.552Z,100626.34
2022-11-04T15:08:44.848Z,100624.06
2022-11-04T15:11:17.485Z,100633.19
2022-11-04T15:13:48.809Z,100631.75
2022-11-04T15:16:25.825Z,100639.94
2022-11-04T15:18:55.366Z,100643.91
2022-11-04T15:21:22.422Z,100648.66
2022-11-04T15:23:52.065Z,100661.66
2022-11-04T15:26:30.410Z,100656.19
2022-11-04T15:29:00.269Z,100658.97
2022-11-04T15:31:30.735Z,100662.13
2022-11-04T15:34:03.068Z,100671.91
2022-11-04T15:36:33.104Z,100675.81
2022-11-04T15:39:08.206Z,100684.97
2022-11-04T15:41:57.503Z,100688.13
2022-11-04T15:44:27.201Z,100686.50
2022-11-04T15:46:56.669Z,100686.03
2022-11-04T15:49:28.640Z,100685.63
2022-11-04T15:52:06.152Z,100687.75
2022-11-04T15:54:39.202Z,100685.53
2022-11-04T15:57:14.672Z,100694.47
2022-11-04T15:59:49.589Z,100705.03
2022-11-04T16:02:40.427Z,100701.00
2022-11-04T16:05:12.880Z,100702.16
2022-11-04T16:07:44.837Z,100714.53
2022-11-04T16:10:25.344Z,100712.09
2022-11-04T16:12:58.261Z,100714.06
2022-11-04T16:15:40.013Z,100719.47
2022-11-04T16:18:23.179Z,100717.84
2022-11-04T16:20:53.034Z,100717.84
2022-11-04T16:23:23.514Z,100722.06
2022-11-04T16:26:06.611Z,100719.81
2022-11-04T16:28:38.139Z,100720.78
2022-11-04T16:31:29.684Z,100726.16
2022-11-04T16:33:56.211Z,100729.72
2022-11-04T16:36:29.666Z,100725.53
2022-11-04T16:39:03.819Z,100730.53
2022-11-04T16:41:37.707Z,100734.13
2022-11-04T16:44:15.038Z,100744.69
2022-11-04T16:46:41.710Z,100751.84
2022-11-04T16:49:10.704Z,100750.41
2022-11-04T16:51:37.265Z,100754.94
2022-11-04T16:54:03.859Z,100762.94
2022-11-04T16:56:30.550Z,100764.09
2022-11-04T16:58:57.116Z,100760.84
2022-11-04T17:01:23.822Z,100763.78
2022-11-04T17:03:50.563Z,100755.34
2022-11-04T17:06:17.981Z,100766.72
2022-11-04T17:08:44.791Z,100765.13
2022-11-04T17:11:11.808Z,100768.69
2022-11-04T17:13:39.384Z,100776.66
2022-11-04T17:16:07.576Z,100781.03
2022-11-04T17:18:34.721Z,100782.03
2022-11-04T17:21:05.557Z,100787.38
2022-11-04T17:23:32.273Z,100787.56
2022-11-04T17:25:59.012Z,100780.09
2022-11-04T17:28:26.959Z,100794.25
2022-11-04T17:31:17.073Z,100802.22
2022-11-04T17:33:43.720Z,100807.75
2022-11-04T17:36:18.683Z,100813.13
2022-11-04T17:38:46.508Z,100813.94
2022-11-04T17:41:31.930Z,100823.50
2022-11-04T17:44:01.457Z,100816.06
2022-11-04T17:46:47.582Z,100819.63
2022-11-04T17:49:18.123Z,100823.53
2022-11-04T17:51:50.734Z,100829.72
2022-11-04T17:54:20.465Z,100827.94
2022-11-04T17:56:47.250Z,100839.28
2022-11-04T17:59:15.257Z,100836.06
2022-11-04T18:01:43.187Z,100834.59
2022-11-04T18:04:37.254Z,100831.38
2022-11-04T18:07:04.164Z,100831.69
2022-11-04T18:09:33.720Z,100824.28
2022-11-04T18:12:19.189Z,100818.59
2022-11-04T18:14:45.843Z,100824.28
2022-11-04T18:17:12.627Z,100827.06
2022-11-04T18:19:39.324Z,100830.94
2022-11-04T18:22:05.984Z,100827.91
2022-11-04T18:24:32.760Z,100832.44
2022-11-04T18:27:00.782Z,100837.97
2022-11-04T18:29:27.571Z,100841.88
2022-11-04T18:31:54.228Z,100838.63
2022-11-04T18:34:21.038Z,100843.00
2022-11-04T18:36:48.615Z,100850.16
2022-11-04T18:39:17.692Z,100845.78
2022-11-04T18:41:45.776Z,100844.97
2022-11-04T18:44:18.930Z,100841.72
2022-11-04T18:46:46.041Z,100839.47
2022-11-04T18:49:14.258Z,100836.22
2022-11-04T18:51:41.165Z,100841.75
2022-11-04T18:54:08.753Z,100843.69
2022-11-04T18:56:35.488Z,100845.66
2022-11-04T18:59:02.798Z,100857.97
2022-11-04T19:01:32.216Z,100858.28
2022-11-04T19:03:59.933Z,100853.09
2022-11-04T19:06:29.937Z,100860.25
2022-11-04T19:08:59.709Z,100863.16
2022-11-04T19:11:31.976Z,100858.97
2022-11-04T19:14:06.523Z,100862.69
2022-11-04T19:16:36.173Z,100860.41
2022-11-04T19:19:06.525Z,100869.34
2022-11-04T19:21:33.993Z,100873.72
2022-11-04T19:24:01.558Z,100873.06
2022-11-04T19:26:31.059Z,100882.97
2022-11-04T19:28:58.240Z,100885.72
2022-11-04T19:31:27.338Z,100893.66
2022-11-04T19:33:55.332Z,100881.81
2022-11-04T19:36:23.219Z,100882.94
2022-11-04T19:38:54.803Z,100884.91
2022-11-04T19:41:42.607Z,100888.63
2022-11-04T19:44:12.397Z,100888.97
2022-11-04T19:46:39.098Z,100895.28
2022-11-04T19:49:07.832Z,100904.38
2022-11-04T19:51:35.212Z,100900.44
2022-11-04T19:54:02.376Z,100904.34
2022-11-04T19:56:30.688Z,100913.38
2022-11-04T19:59:00.482Z,100919.19
2022-11-04T20:01:33.106Z,100922.41
2022-11-04T20:04:00.383Z,100929.03
2022-11-04T20:06:27.088Z,100933.25
2022-11-04T20:08:53.799Z,100929.50
2022-11-04T20:11:20.736Z,100939.69
2022-11-04T20:13:48.645Z,100940.28
2022-11-04T20:16:27.958Z,100942.56
2022-11-04T20:18:57.021Z,100940.75
2022-11-04T20:21:25.546Z,100954.16
2022-11-04T20:24:00.939Z,100962.38
2022-11-04T20:26:29.073Z,100959.44
2022-11-04T20:28:58.389Z,100972.03
2022-11-04T20:31:30.947Z,100965.56
2022-11-04T20:33:58.268Z,100977.19
2022-11-04T20:36:27.595Z,100972.31
2022-11-04T20:39:02.208Z,100979.69
2022-11-04T20:41:29.387Z,100989.69
2022-11-04T20:43:56.357Z,100990.97
2022-11-04T20:46:27.238Z,100995.66
2022-11-04T20:48:55.210Z,100995.13
2022-11-04T20:51:25.550Z,100998.00
2022-11-04T20:53:56.113Z,101003.50
2022-11-04T20:56:24.634Z,101005.44
2022-11-04T20:58:57.593Z,101011.72
2022-11-04T21:01:28.799Z,101019.59
2022-11-04T21:03:59.414Z,101017.16
2022-11-04T21:06:26.244Z,101022.34
2022-11-04T21:08:53.131Z,101026.69
2022-11-04T21:11:19.774Z,101035.13
2022-11-04T21:13:46.493Z,101037.06
2022-11-04T21:16:14.922Z,101049.31
2022-11-04T21:18:41.456Z,101052.06
2022-11-04T21:21:11.394Z,101052.50
2022-11-04T21:23:38.007Z,101057.97
2022-11-04T21:26:17.444Z,101059.25
2022-11-04T21:28:44.080Z,101055.44
2022-11-04T21:31:11.597Z,101055.91
2022-11-04T21:33:38.861Z,101060.03
2022-11-04T21:36:08.271Z,101075.16
2022-11-04T21:38:35.099Z,101069.31
2022-11-04T21:41:10.521Z,101082.56
2022-11-04T21:43:37.109Z,101086.09
2022-11-04T21:46:14.440Z,101088.16
2022-11-04T21:48:42.293Z,101093.78
2022-11-04T21:51:12.089Z,101095.66
2022-11-04T21:53:38.913Z,101090.50
2022-11-04T21:56:13.124Z,101095.66
2022-11-04T21:58:39.878Z,101099.38
2022-11-04T22:01:08.197Z,101102.91
2022-11-04T22:03:35.293Z,101102.75
2022-11-04T22:06:04.321Z,101109.56
2022-11-04T22:08:31.815Z,101108.47
2022-11-04T22:11:08.134Z,101107.06
2022-11-04T22:13:35.316Z,101119.84
2022-11-04T22:16:14.424Z,101114.97
2022-11-04T22:18:41.784Z,101117.69
2022-11-04T22:21:11.920Z,101116.06
2022-11-04T22:23:38.742Z,101119.47
2022-11-04T22:26:07.627Z,101116.22
2022-11-04T22:28:34.847Z,101117.81
2022-11-04T22:31:12.963Z,101114.44
2022-11-04T22:33:39.506Z,101117.03
2022-11-04T22:36:06.832Z,101115.25
2022-11-04T22:38:34.264Z,101128.03
2022-11-04T22:41:02.447Z,101136.47
2022-11-04T22:43:29.900Z,101135.63
2022-11-04T22:45:58.125Z,101134.81
2022-11-04T22:48:25.342Z,101133.22
2022-11-04T22:50:58.958Z,101130.09
2022-11-04T22:53:26.021Z,101131.19
2022-11-04T22:55:53.037Z,101119.50
2022-11-04T22:58:19.829Z,101127.50
2022-11-04T23:00:53.412Z,101136.22
2022-11-04T23:03:20.185Z,101131.22
2022-11-04T23:05:46.976Z,101132.16
2022-11-04T23:08:13.543Z,101132.97
2022-11-04T23:10:58.723Z,101134.06
2022-11-04T23:13:43.994Z,101139.91
2022-11-04T23:16:31.285Z,101141.69
2022-11-04T23:18:57.876Z,101142.50
2022-11-04T23:21:43.478Z,101138.28
2022-11-04T23:24:29.137Z,101144.41
2022-11-04T23:26:56.957Z,101137.31
2022-11-04T23:29:41.868Z,101137.19
2022-11-04T23:32:08.681Z,101138.16
2022-11-04T23:34:54.238Z,101137.31
2022-11-04T23:37:20.913Z,101127.50
2022-11-04T23:39:50.558Z,101125.34
2022-11-04T23:42:22.840Z,101131.06
2022-11-04T23:45:12.785Z,101138.66
2022-11-04T23:48:00.412Z,101139.31
2022-11-04T23:50:48.640Z,101143.00
2022-11-04T23:53:36.454Z,101138.16
2022-11-04T23:56:22.788Z,101145.50
2022-11-04T23:59:08.381Z,101151.88
